Time,TemperatureF,DewpointF,PressureIn,WindDirection,WindDirectionDegrees,WindSpeedMPH,WindSpeedGustMPH,Humidity,HourlyPrecipIn,Conditions,Clouds,dailyrainin,SoftwareType,DateUTC
2013-06-03 00:00:00,57.9,46.2,29.63,ENE,67,0.0,2.5,65,0.00,,,0.00,LWC V2.10 B1813,2013-06-03 07:00:00,
2013-06-03 00:10:00,57.9,46.2,29.63,ENE,67,0.0,2.5,65,-99.99,,,0.00,LWC V2.10 B1813,2013-06-03 07:10:00,
2013-06-03 00:15:00,57.9,46.6,29.63,East,90,2.5,6.3,66,0.00,,,0.00,LWC V2.10 B1813,2013-06-03 07:15:00,
2013-06-03 00:20:00,57.9,46.6,29.63,ENE,67,1.1,1.1,66,0.00,,,0.00,LWC V2.10 B1813,2013-06-03 07:20:00,
2013-06-03 00:25:00,57.7,46.4,29.63,ENE,67,0.0,0.0,66,0.00,,,0.00,LWC V2.10 B1813,2013-06-03 07:25:00,
2013-06-03 00:30:00,57.6,46.2,29.64,NNE,22,2.7,2.7,66,0.00,,,0.00,LWC V2.10 B1813,2013-06-03 07:30:00,
2013-06-03 00:35:00,57.4,46.1,29.64,East,90,1.3,5.1,66,0.00,,,0.00,LWC V2.10 B1813,2013-06-03 07:35:00,
2013-06-03 00:40:00,57.4,46.5,29.64,East,90,4.7,4.7,67,0.00,,,0.00,LWC V2.10 B1813,2013-06-03 07:40:00,
2013-06-03 00:45:00,57.4,46.5,29.63,East,90,0.0,0.0,67,0.00,,,0.00,LWC V2.10 B1813,2013-06-03 07:45:00,
2013-06-03 00:50:00,57.4,46.5,29.63,ENE,67,1.1,1.1,67,0.00,,,0.00,LWC V2.10 B1813,2013-06-03 07:50:00,
2013-06-03 00:55:00,57.2,46.3,29.63,ENE,67,2.9,2.9,67,0.00,,,0.00,LWC V2.10 B1813,2013-06-03 07:55:00,
2013-06-03 01:00:00,57.0,46.1,29.63,ENE,67,0.0,0.0,67,0.00,,,0.00,LWC V2.10 B1813,2013-06-03 08:00:00,
2013-06-03 01:05:00,57.0,46.1,29.63,SE,135,0.0,0.0,67,0.00,,,0.00,LWC V2.10 B1813,2013-06-03 08:05:00,
2013-06-03 01:10:00,57.0,46.5,29.64,East,90,0.0,0.0,68,0.00,,,0.00,LWC V2.10 B1813,2013-06-03 08:10:00,
2013-06-03 01:15:00,57.0,46.5,29.64,ENE,67,2.0,2.0,68,0.00,,,0.00,LWC V2.10 B1813,2013-06-03 08:15:00,
2013-06-03 01:20:00,57.0,46.5,29.63,ENE,67,0.0,1.3,68,0.00,,,0.00,LWC V2.10 B1813,2013-06-03 08:20:00,
2013-06-03 01:25:00,57.0,46.5,29.63,ENE,67,0.0,0.0,68,0.00,,,0.00,LWC V2.10 B1813,2013-06-03 08:25:00,
2013-06-03 01:30:00,57.0,46.5,29.63,ENE,67,1.1,1.1,68,0.00,,,0.00,LWC V2.10 B1813,2013-06-03 08:30:00,
2013-06-03 01:35:00,57.0,46.5,29.64,ENE,67,0.0,0.0,68,0.00,,,0.00,LWC V2.10 B1813,2013-06-03 08:35:00,
2013-06-03 01:40:00,56.8,46.3,29.64,ENE,67,3.8,3.8,68,0.00,,,0.00,LWC V2.10 B1813,2013-06-03 08:40:00,
2013-06-03 01:45:00,56.7,46.2,29.64,ENE,67,0.0,0.0,68,0.00,,,0.00,LWC V2.10 B1813,2013-06-03 08:45:00,
2013-06-03 01:50:00,56.5,46.4,29.64,ENE,67,0.0,2.0,69,0.00,,,0.00,LWC V2.10 B1813,2013-06-03 08:50:00,
2013-06-03 01:55:00,56.3,46.3,29.64,ENE,67,2.7,2.7,69,0.00,,,0.00,LWC V2.10 B1813,2013-06-03 08:55:00,
2013-06-03 02:00:00,56.1,46.1,29.64,NE,45,0.0,0.0,69,0.00,,,0.00,LWC V2.10 B1813,2013-06-03 09:00:00,
2013-06-03 02:08:00,56.1,46.1,29.64,North,-999,-999.0,0.0,69,0.00,,,0.00,LWC V2.10 B1813,2013-06-03 09:08:00,
2013-06-03 02:13:00,56.3,46.7,29.64,ENE,67,0.0,0.0,70,0.00,,,0.00,LWC V2.10 B1813,2013-06-03 09:13:00,
2013-06-03 02:18:00,56.5,46.8,29.64,ENE,67,0.0,0.0,70,0.00,,,0.00,LWC V2.10 B1813,2013-06-03 09:18:00,
2013-06-03 02:23:00,56.8,47.2,29.64,ENE,67,0.0,0.0,70,0.00,,,0.00,LWC V2.10 B1813,2013-06-03 09:23:00,
2013-06-03 02:28:00,57.0,46.9,29.64,ENE,67,0.0,0.0,69,0.00,,,0.00,LWC V2.10 B1813,2013-06-03 09:28:00,
2013-06-03 02:33:00,57.0,46.5,29.64,ENE,67,0.0,0.0,68,0.00,,,0.00,LWC V2.10 B1813,2013-06-03 09:33:00,
2013-06-03 02:38:00,57.0,46.5,29.64,ENE,67,0.0,0.0,68,0.00,,,0.00,LWC V2.10 B1813,2013-06-03 09:38:00,
2013-06-03 02:43:00,57.0,46.5,29.65,ENE,67,0.0,0.0,68,0.00,,,0.00,LWC V2.10 B1813,2013-06-03 09:43:00,
2013-06-03 02:48:00,56.8,46.3,29.65,ENE,67,0.0,0.0,68,0.00,,,0.00,LWC V2.10 B1813,2013-06-03 09:48:00,
2013-06-03 02:53:00,56.7,46.2,29.64,ENE,67,0.0,0.0,68,0.00,,,0.00,LWC V2.10 B1813,2013-06-03 09:53:00,
2013-06-03 02:58:00,56.5,46.0,29.64,ENE,67,0.0,0.0,68,0.00,,,0.00,LWC V2.10 B1813,2013-06-03 09:58:00,
2013-06-03 03:03:00,56.5,46.4,29.64,ENE,67,0.0,0.0,69,0.00,,,0.00,LWC V2.10 B1813,2013-06-03 10:03:00,
2013-06-03 03:08:00,56.3,46.3,29.65,ENE,67,0.0,0.0,69,0.00,,,0.00,LWC V2.10 B1813,2013-06-03 10:08:00,
2013-06-03 03:13:00,56.3,46.3,29.64,ENE,67,0.0,0.0,69,0.00,,,0.00,LWC V2.10 B1813,2013-06-03 10:13:00,
2013-06-03 03:18:00,56.1,46.1,29.64,ENE,67,0.0,0.0,69,0.00,,,0.00,LWC V2.10 B1813,2013-06-03 10:18:00,
2013-06-03 03:23:00,56.1,46.1,29.64,ENE,67,0.0,0.0,69,0.00,,,0.00,LWC V2.10 B1813,2013-06-03 10:23:00,
2013-06-03 03:28:00,55.9,46.3,29.65,ENE,67,0.0,0.0,70,0.00,,,0.00,LWC V2.10 B1813,2013-06-03 10:28:00,
2013-06-03 03:33:00,55.9,46.3,29.65,ENE,67,0.0,0.0,70,0.00,,,0.00,LWC V2.10 B1813,2013-06-03 10:33:00,
2013-06-03 03:38:00,55.8,46.2,29.65,ENE,67,0.0,0.0,70,0.00,,,0.00,LWC V2.10 B1813,2013-06-03 10:38:00,
2013-06-03 03:43:00,55.8,46.2,29.65,ENE,67,0.0,0.0,70,0.00,,,0.00,LWC V2.10 B1813,2013-06-03 10:43:00,
2013-06-03 03:48:00,55.8,46.2,29.65,ENE,67,0.0,0.0,70,0.00,,,0.00,LWC V2.10 B1813,2013-06-03 10:48:00,
2013-06-03 03:53:00,55.6,46.0,29.65,ENE,67,0.0,0.0,70,0.00,,,0.00,LWC V2.10 B1813,2013-06-03 10:53:00,
2013-06-03 03:58:00,55.6,46.0,29.65,ENE,67,0.0,0.0,70,0.00,,,0.00,LWC V2.10 B1813,2013-06-03 10:58:00,
2013-06-03 04:03:00,55.4,45.9,29.65,ENE,67,0.0,0.0,70,0.00,,,0.00,LWC V2.10 B1813,2013-06-03 11:03:00,
2013-06-03 04:08:00,55.2,45.7,29.66,ENE,67,0.0,0.0,70,0.00,,,0.00,LWC V2.10 B1813,2013-06-03 11:08:00,
2013-06-03 04:13:00,55.2,45.7,29.65,NNW,337,0.0,0.0,70,0.00,,,0.00,LWC V2.10 B1813,2013-06-03 11:13:00,
2013-06-03 04:18:00,55.2,45.7,29.65,ENE,67,0.0,0.0,70,0.00,,,0.00,LWC V2.10 B1813,2013-06-03 11:18:00,
2013-06-03 04:23:00,55.2,45.7,29.65,ENE,67,0.0,0.0,70,0.00,,,0.00,LWC V2.10 B1813,2013-06-03 11:23:00,
2013-06-03 04:28:00,55.2,45.7,29.65,ENE,67,0.0,0.0,70,0.00,,,0.00,LWC V2.10 B1813,2013-06-03 11:28:00,
2013-06-03 04:33:00,55.0,45.8,29.65,ENE,67,0.0,0.0,71,0.00,,,0.00,LWC V2.10 B1813,2013-06-03 11:33:00,
2013-06-03 04:38:00,55.0,45.8,29.65,ENE,67,0.0,0.0,71,0.00,,,0.00,LWC V2.10 B1813,2013-06-03 11:38:00,
2013-06-03 04:43:00,55.0,45.8,29.65,ENE,67,0.0,0.0,71,0.00,,,0.00,LWC V2.10 B1813,2013-06-03 11:43:00,
2013-06-03 04:48:00,54.9,45.8,29.65,ENE,67,0.0,0.0,71,0.00,,,0.00,LWC V2.10 B1813,2013-06-03 11:48:00,
2013-06-03 04:53:00,54.9,45.7,29.65,ENE,67,0.0,0.0,71,0.00,,,0.00,LWC V2.10 B1813,2013-06-03 11:53:00,
2013-06-03 04:58:00,54.7,45.5,29.65,ENE,67,0.0,0.0,71,0.00,,,0.00,LWC V2.10 B1813,2013-06-03 11:58:00,
2013-06-03 05:03:00,54.7,45.5,29.65,ENE,67,0.0,0.0,71,0.00,,,0.00,LWC V2.10 B1813,2013-06-03 12:03:00,
2013-06-03 05:08:00,54.7,45.5,29.65,NE,45,0.0,0.0,71,0.00,,,0.00,LWC V2.10 B1813,2013-06-03 12:08:00,
2013-06-03 05:13:00,54.7,45.5,29.65,NE,45,0.0,0.0,71,0.00,,,0.00,LWC V2.10 B1813,2013-06-03 12:13:00,
2013-06-03 05:18:00,54.5,45.7,29.65,NNE,22,0.0,0.0,72,0.00,,,0.00,LWC V2.10 B1813,2013-06-03 12:18:00,
2013-06-03 05:24:00,54.5,45.7,29.65,NNE,22,0.0,0.0,72,0.00,,,0.00,LWC V2.10 B1813,2013-06-03 12:24:00,
2013-06-03 05:29:00,54.5,45.7,29.65,NNE,22,0.0,0.0,72,0.00,,,0.00,LWC V2.10 B1813,2013-06-03 12:29:00,
2013-06-03 05:34:00,54.5,45.5,29.65,North,0,0.0,0.0,72,0.00,,,0.00,LWC V2.10 B1813,2013-06-03 12:34:00,
2013-06-03 05:39:00,54.3,45.5,29.66,North,0,0.0,0.0,72,0.00,,,0.00,LWC V2.10 B1813,2013-06-03 12:39:00,
2013-06-03 05:44:00,54.3,45.5,29.65,North,0,0.0,0.0,72,0.00,,,0.00,LWC V2.10 B1813,2013-06-03 12:44:00,
2013-06-03 05:49:00,54.3,45.5,29.66,North,0,0.0,0.0,72,0.00,,,0.00,LWC V2.10 B1813,2013-06-03 12:49:00,
2013-06-03 05:54:00,54.3,45.5,29.66,North,0,0.0,0.0,72,0.00,,,0.00,LWC V2.10 B1813,2013-06-03 12:54:00,
2013-06-03 05:59:00,54.3,45.5,29.66,North,0,0.0,0.0,72,0.00,,,0.00,LWC V2.10 B1813,2013-06-03 12:59:00,
2013-06-03 06:04:00,54.3,45.5,29.66,North,0,0.0,0.0,72,0.00,,,0.00,LWC V2.10 B1813,2013-06-03 13:04:00,
2013-06-03 06:09:00,54.3,45.5,29.66,North,0,0.0,0.0,72,0.00,,,0.00,LWC V2.10 B1813,2013-06-03 13:09:00,
2013-06-03 06:14:00,54.3,45.5,29.66,North,0,0.0,0.0,72,0.00,,,0.00,LWC V2.10 B1813,2013-06-03 13:14:00,
2013-06-03 06:19:00,54.3,45.5,29.66,North,0,0.0,0.0,72,0.00,,,0.00,LWC V2.10 B1813,2013-06-03 13:19:00,
2013-06-03 06:24:00,54.3,45.5,29.66,North,0,0.0,0.0,72,0.00,,,0.00,LWC V2.10 B1813,2013-06-03 13:24:00,
2013-06-03 06:29:00,54.3,45.5,29.67,North,0,0.0,0.0,72,0.00,,,0.00,LWC V2.10 B1813,2013-06-03 13:29:00,
2013-06-03 06:34:00,54.3,45.5,29.67,North,0,0.0,0.0,72,0.00,,,0.00,LWC V2.10 B1813,2013-06-03 13:34:00,
2013-06-03 06:39:00,54.5,46.0,29.67,North,0,0.0,0.0,73,0.00,,,0.00,LWC V2.10 B1813,2013-06-03 13:39:00,
2013-06-03 06:44:00,54.7,46.2,29.67,North,0,0.0,0.0,73,0.00,,,0.00,LWC V2.10 B1813,2013-06-03 13:44:00,
2013-06-03 06:49:00,54.7,46.2,29.68,North,0,0.0,0.0,73,0.00,,,0.00,LWC V2.10 B1813,2013-06-03 13:49:00,
2013-06-03 06:54:00,54.9,46.0,29.68,NNE,22,0.0,0.0,72,0.00,,,0.00,LWC V2.10 B1813,2013-06-03 13:54:00,
2013-06-03 06:59:00,55.0,46.2,29.68,NNE,22,0.0,0.0,72,0.00,,,0.00,LWC V2.10 B1813,2013-06-03 13:59:00,
2013-06-03 07:04:00,55.6,46.7,29.68,NE,45,0.0,0.0,72,0.00,,,0.00,LWC V2.10 B1813,2013-06-03 14:04:00,
2013-06-03 07:09:00,55.8,46.9,29.68,NE,45,0.0,0.0,72,0.00,,,0.00,LWC V2.10 B1813,2013-06-03 14:09:00,
2013-06-03 07:14:00,55.9,47.0,29.68,East,90,2.0,2.0,72,0.00,,,0.00,LWC V2.10 B1813,2013-06-03 14:14:00,
2013-06-03 07:19:00,55.9,47.0,29.68,ENE,67,0.0,0.0,72,0.00,,,0.00,LWC V2.10 B1813,2013-06-03 14:19:00,
2013-06-03 07:24:00,56.1,46.8,29.68,ENE,67,0.0,0.0,71,0.00,,,0.00,LWC V2.10 B1813,2013-06-03 14:24:00,
2013-06-03 07:29:00,56.1,46.8,29.68,NNE,22,0.0,0.0,71,0.00,,,0.00,LWC V2.10 B1813,2013-06-03 14:29:00,
2013-06-03 07:34:00,56.3,47.0,29.68,ENE,67,0.0,4.0,71,0.00,,,0.00,LWC V2.10 B1813,2013-06-03 14:34:00,
2013-06-03 07:39:00,56.5,47.2,29.69,ENE,67,0.0,0.0,71,0.00,,,0.00,LWC V2.10 B1813,2013-06-03 14:39:00,
2013-06-03 07:44:00,56.5,47.2,29.68,ENE,67,0.0,0.0,71,0.00,,,0.00,LWC V2.10 B1813,2013-06-03 14:44:00,
2013-06-03 07:49:00,57.0,47.5,29.69,ENE,67,1.3,1.3,71,0.00,,,0.00,LWC V2.10 B1813,2013-06-03 14:49:00,
2013-06-03 07:54:00,57.4,48.0,29.69,NE,45,1.8,1.8,71,0.00,,,0.00,LWC V2.10 B1813,2013-06-03 14:54:00,
2013-06-03 07:59:00,57.4,48.0,29.69,NE,45,0.0,0.0,71,0.00,,,0.00,LWC V2.10 B1813,2013-06-03 14:59:00,
2013-06-03 08:04:00,57.4,48.0,29.69,ENE,67,0.0,0.0,71,0.00,,,0.00,LWC V2.10 B1813,2013-06-03 15:04:00,
2013-06-03 08:09:00,57.7,48.4,29.69,ESE,112,0.0,0.0,71,0.00,,,0.00,LWC V2.10 B1813,2013-06-03 15:09:00,
2013-06-03 08:14:00,57.7,48.0,29.70,ESE,112,0.0,0.0,70,0.00,,,0.00,LWC V2.10 B1813,2013-06-03 15:14:00,
2013-06-03 08:19:00,57.9,48.2,29.69,NNE,22,0.0,0.0,70,0.00,,,0.00,LWC V2.10 B1813,2013-06-03 15:19:00,
2013-06-03 08:24:00,57.9,48.2,29.69,NE,45,0.0,0.0,70,0.00,,,0.00,LWC V2.10 B1813,2013-06-03 15:24:00,
2013-06-03 08:29:00,58.3,48.6,29.70,North,0,0.0,0.0,70,0.00,,,0.00,LWC V2.10 B1813,2013-06-03 15:29:00,
2013-06-03 08:34:00,58.6,48.5,29.70,SE,135,0.0,0.0,69,0.00,,,0.00,LWC V2.10 B1813,2013-06-03 15:34:00,
2013-06-03 08:39:00,58.8,48.7,29.70,ESE,112,0.0,0.0,69,0.00,,,0.00,LWC V2.10 B1813,2013-06-03 15:39:00,
2013-06-03 08:44:00,58.8,48.7,29.70,ENE,67,0.0,0.0,69,0.00,,,0.00,LWC V2.10 B1813,2013-06-03 15:44:00,
2013-06-03 08:49:00,59.5,49.4,29.71,East,90,0.0,0.0,69,0.00,,,0.00,LWC V2.10 B1813,2013-06-03 15:49:00,
2013-06-03 08:54:00,60.1,49.5,29.71,North,0,0.0,0.0,68,0.00,,,0.00,LWC V2.10 B1813,2013-06-03 15:54:00,
2013-06-03 08:59:00,60.6,49.7,29.71,ENE,67,4.0,4.0,67,0.00,,,0.00,LWC V2.10 B1813,2013-06-03 15:59:00,
2013-06-03 09:04:00,61.5,50.5,29.71,NNW,337,0.0,0.0,67,0.00,,,0.00,LWC V2.10 B1813,2013-06-03 16:04:00,
2013-06-03 09:09:00,61.9,50.4,29.71,North,0,0.0,0.0,66,0.00,,,0.00,LWC V2.10 B1813,2013-06-03 16:09:00,
2013-06-03 09:14:00,62.4,50.5,29.71,NNE,22,4.9,4.9,65,0.00,,,0.00,LWC V2.10 B1813,2013-06-03 16:14:00,
2013-06-03 09:19:00,63.1,50.7,29.71,ENE,67,3.6,3.6,64,0.00,,,0.00,LWC V2.10 B1813,2013-06-03 16:19:00,
2013-06-03 09:24:00,63.7,51.2,29.71,NNW,337,0.0,1.1,64,0.00,,,0.00,LWC V2.10 B1813,2013-06-03 16:24:00,
2013-06-03 09:29:00,64.2,51.3,29.71,East,90,1.3,1.3,63,0.00,,,0.00,LWC V2.10 B1813,2013-06-03 16:29:00,
2013-06-03 09:34:00,65.1,51.7,29.71,North,0,4.5,4.5,62,0.00,,,0.00,LWC V2.10 B1813,2013-06-03 16:34:00,
2013-06-03 09:39:00,65.7,51.9,29.71,East,90,0.0,0.0,61,0.00,,,0.00,LWC V2.10 B1813,2013-06-03 16:39:00,
2013-06-03 09:44:00,66.0,51.8,29.71,NNW,337,0.0,0.0,60,0.00,,,0.00,LWC V2.10 B1813,2013-06-03 16:44:00,
2013-06-03 09:49:00,66.6,51.8,29.71,NW,315,1.8,3.4,59,0.00,,,0.00,LWC V2.10 B1813,2013-06-03 16:49:00,
2013-06-03 09:54:00,66.7,52.0,29.71,ENE,67,0.0,0.0,59,0.00,,,0.00,LWC V2.10 B1813,2013-06-03 16:54:00,
2013-06-03 09:59:00,67.3,52.5,29.71,North,0,0.0,0.0,59,0.00,,,0.00,LWC V2.10 B1813,2013-06-03 16:59:00,
2013-06-03 10:04:00,68.2,52.3,29.71,East,90,2.5,4.2,57,0.00,,,0.00,LWC V2.10 B1813,2013-06-03 17:04:00,
2013-06-03 10:09:00,69.3,53.3,29.71,SSE,157,0.0,0.0,57,0.00,,,0.00,LWC V2.10 B1813,2013-06-03 17:09:00,
2013-06-03 10:14:00,70.3,53.9,29.72,ESE,112,4.0,4.0,56,0.00,,,0.00,LWC V2.10 B1813,2013-06-03 17:14:00,
2013-06-03 10:19:00,71.2,53.7,29.72,WSW,247,1.8,1.8,54,0.00,,,0.00,LWC V2.10 B1813,2013-06-03 17:19:00,
2013-06-03 10:24:00,71.4,53.3,29.71,SE,135,0.0,0.0,53,0.00,,,0.00,LWC V2.10 B1813,2013-06-03 17:24:00,
2013-06-03 10:29:00,71.4,53.3,29.72,SSE,157,0.0,0.0,53,0.00,,,0.00,LWC V2.10 B1813,2013-06-03 17:29:00,
2013-06-03 10:34:00,72.0,53.3,29.72,WSW,247,5.6,5.6,52,0.00,,,0.00,LWC V2.10 B1813,2013-06-03 17:34:00,
2013-06-03 10:39:00,71.8,52.6,29.72,SW,225,1.3,1.3,51,0.00,,,0.00,LWC V2.10 B1813,2013-06-03 17:39:00,
2013-06-03 10:44:00,72.1,53.5,29.72,WNW,292,0.0,0.0,52,0.00,,,0.00,LWC V2.10 B1813,2013-06-03 17:44:00,
2013-06-03 10:49:00,72.9,53.1,29.72,SW,225,0.0,0.0,50,0.00,,,0.00,LWC V2.10 B1813,2013-06-03 17:49:00,
2013-06-03 10:54:00,73.0,53.3,29.72,South,180,0.4,0.4,50,0.00,,,0.00,LWC V2.10 B1813,2013-06-03 17:54:00,
2013-06-03 10:59:00,73.2,53.4,29.72,SSW,202,0.7,0.7,50,0.00,,,0.00,LWC V2.10 B1813,2013-06-03 17:59:00,
2013-06-03 11:04:00,73.6,53.8,29.73,East,90,0.0,0.0,50,0.00,,,0.00,LWC V2.10 B1813,2013-06-03 18:04:00,
2013-06-03 11:09:00,73.4,53.0,29.73,NNW,337,0.0,0.0,49,0.00,,,0.00,LWC V2.10 B1813,2013-06-03 18:09:00,
2013-06-03 11:14:00,73.8,52.8,29.73,North,0,0.0,1.6,49,0.00,,,0.00,LWC V2.10 B1813,2013-06-03 18:14:00,
2013-06-03 11:19:00,73.6,52.6,29.73,NW,315,4.5,4.5,48,0.00,,,0.00,LWC V2.10 B1813,2013-06-03 18:19:00,
2013-06-03 11:24:00,73.6,53.2,29.73,SSE,157,3.4,3.4,49,0.00,,,0.00,LWC V2.10 B1813,2013-06-03 18:24:00,
2013-06-03 11:29:00,73.6,52.6,29.73,WNW,292,0.0,0.0,48,0.00,,,0.00,LWC V2.10 B1813,2013-06-03 18:29:00,
2013-06-03 11:34:00,73.6,52.6,29.73,WNW,292,0.0,0.0,48,0.00,,,0.00,LWC V2.10 B1813,2013-06-03 18:34:00,
2013-06-03 11:39:00,73.9,52.9,29.73,NE,45,1.6,1.6,48,0.00,,,0.00,LWC V2.10 B1813,2013-06-03 18:39:00,
2013-06-03 11:44:00,74.5,53.1,29.73,West,270,0.0,8.1,48,0.00,,,0.00,LWC V2.10 B1813,2013-06-03 18:44:00,
2013-06-03 11:49:00,74.8,53.2,29.73,SSE,157,0.0,2.2,47,0.00,,,0.00,LWC V2.10 B1813,2013-06-03 18:49:00,
2013-06-03 11:54:00,74.8,53.2,29.73,SE,135,1.1,1.1,47,0.00,,,0.00,LWC V2.10 B1813,2013-06-03 18:54:00,
2013-06-03 11:59:00,75.0,53.4,29.73,NE,45,2.2,2.2,47,0.00,,,0.00,LWC V2.10 B1813,2013-06-03 18:59:00,
2013-06-03 12:04:00,75.0,53.4,29.73,NNE,22,0.0,2.5,47,0.00,,,0.00,LWC V2.10 B1813,2013-06-03 19:04:00,
2013-06-03 12:09:00,75.2,53.6,29.73,ENE,67,4.9,4.9,47,0.00,,,0.00,LWC V2.10 B1813,2013-06-03 19:09:00,
2013-06-03 12:14:00,75.7,54.0,29.74,ENE,67,1.6,1.6,47,0.00,,,0.00,LWC V2.10 B1813,2013-06-03 19:14:00,
2013-06-03 12:19:00,76.1,53.8,29.73,ENE,67,2.2,2.2,46,0.00,,,0.00,LWC V2.10 B1813,2013-06-03 19:19:00,
2013-06-03 12:24:00,76.3,53.9,29.74,ENE,67,2.2,2.2,46,0.00,,,0.00,LWC V2.10 B1813,2013-06-03 19:24:00,
2013-06-03 12:29:00,76.3,53.9,29.74,ESE,112,0.0,0.0,46,0.00,,,0.00,LWC V2.10 B1813,2013-06-03 19:29:00,
2013-06-03 12:34:00,76.6,54.2,29.74,East,90,2.9,2.9,46,0.00,,,0.00,LWC V2.10 B1813,2013-06-03 19:34:00,
2013-06-03 12:39:00,76.6,53.6,29.74,ENE,67,0.0,0.0,45,0.00,,,0.00,LWC V2.10 B1813,2013-06-03 19:39:00,
2013-06-03 12:44:00,76.6,53.6,29.74,SW,225,4.2,4.2,45,0.00,,,0.00,LWC V2.10 B1813,2013-06-03 19:44:00,
2013-06-03 12:49:00,76.5,53.5,29.74,South,180,2.7,3.4,45,0.00,,,0.00,LWC V2.10 B1813,2013-06-03 19:49:00,
2013-06-03 12:54:00,76.6,53.6,29.74,SSW,202,0.0,0.0,45,0.00,,,0.00,LWC V2.10 B1813,2013-06-03 19:54:00,
2013-06-03 12:59:00,76.6,53.6,29.74,SW,225,1.3,1.3,45,0.00,,,0.00,LWC V2.10 B1813,2013-06-03 19:59:00,
2013-06-03 13:04:00,76.6,53.6,29.74,NNE,22,0.0,2.0,45,0.00,,,0.00,LWC V2.10 B1813,2013-06-03 20:04:00,
2013-06-03 13:09:00,76.5,53.5,29.74,North,0,6.3,6.3,45,0.00,,,0.00,LWC V2.10 B1813,2013-06-03 20:09:00,
2013-06-03 13:14:00,76.3,53.3,29.74,ENE,67,5.6,5.6,45,0.00,,,0.00,LWC V2.10 B1813,2013-06-03 20:14:00,
2013-06-03 13:19:00,76.1,53.2,29.74,ESE,112,3.1,3.1,45,0.00,,,0.00,LWC V2.10 B1813,2013-06-03 20:19:00,
2013-06-03 13:24:00,75.9,53.0,29.74,NE,45,2.5,2.5,45,0.00,,,0.00,LWC V2.10 B1813,2013-06-03 20:24:00,
2013-06-03 13:29:00,75.7,52.8,29.74,East,90,8.5,8.5,45,0.00,,,0.00,LWC V2.10 B1813,2013-06-03 20:29:00,
2013-06-03 13:34:00,75.6,52.7,29.74,ENE,67,2.5,2.5,45,0.00,,,0.00,LWC V2.10 B1813,2013-06-03 20:34:00,
2013-06-03 13:39:00,75.6,53.3,29.74,SE,135,4.2,4.2,46,0.00,,,0.00,LWC V2.10 B1813,2013-06-03 20:39:00,
2013-06-03 13:44:00,75.4,53.1,29.74,ENE,67,5.1,5.6,46,0.00,,,0.00,LWC V2.10 B1813,2013-06-03 20:44:00,
2013-06-03 13:49:00,75.9,53.0,29.75,WSW,247,0.0,0.0,45,0.00,,,0.00,LWC V2.10 B1813,2013-06-03 20:49:00,
2013-06-03 13:54:00,75.9,53.0,29.74,NE,45,2.9,2.9,45,0.00,,,0.00,LWC V2.10 B1813,2013-06-03 20:54:00,
2013-06-03 13:59:00,76.3,53.3,29.75,SE,135,0.0,0.0,45,0.00,,,0.00,LWC V2.10 B1813,2013-06-03 20:59:00,
2013-06-03 14:04:00,76.1,53.2,29.75,ENE,67,7.6,7.6,45,0.00,,,0.00,LWC V2.10 B1813,2013-06-03 21:04:00,
2013-06-03 14:09:00,75.9,53.0,29.75,NE,45,0.0,0.0,45,0.00,,,0.00,LWC V2.10 B1813,2013-06-03 21:09:00,
2013-06-03 14:14:00,75.7,52.8,29.75,NE,45,1.3,1.3,45,0.00,,,0.00,LWC V2.10 B1813,2013-06-03 21:14:00,
2013-06-03 14:19:00,75.4,52.5,29.75,NE,45,8.3,8.3,45,0.00,,,0.00,LWC V2.10 B1813,2013-06-03 21:19:00,
2013-06-03 14:24:00,74.8,52.6,29.75,West,270,0.0,3.1,46,0.00,,,0.00,LWC V2.10 B1813,2013-06-03 21:24:00,
2013-06-03 14:29:00,74.8,52.6,29.75,NE,45,5.6,5.6,46,0.00,,,0.00,LWC V2.10 B1813,2013-06-03 21:29:00,
2013-06-03 14:34:00,74.8,52.6,29.75,NE,45,5.4,5.4,46,0.00,,,0.00,LWC V2.10 B1813,2013-06-03 21:34:00,
2013-06-03 14:39:00,74.5,52.2,29.75,NE,45,11.4,11.4,46,0.00,,,0.00,LWC V2.10 B1813,2013-06-03 21:39:00,
2013-06-03 14:44:00,74.3,52.1,29.75,ENE,67,6.5,6.5,46,0.00,,,0.00,LWC V2.10 B1813,2013-06-03 21:44:00,
2013-06-03 14:49:00,74.1,52.5,29.75,SSE,157,0.0,0.0,47,0.00,,,0.00,LWC V2.10 B1813,2013-06-03 21:49:00,
2013-06-03 14:54:00,74.3,52.7,29.75,NE,45,6.3,6.3,47,0.00,,,0.00,LWC V2.10 B1813,2013-06-03 21:54:00,
2013-06-03 14:59:00,74.3,52.1,29.75,ENE,67,6.7,6.7,46,0.00,,,0.00,LWC V2.10 B1813,2013-06-03 21:59:00,
2013-06-03 15:04:00,74.5,52.2,29.75,ENE,67,6.5,6.5,46,0.00,,,0.00,LWC V2.10 B1813,2013-06-03 22:04:00,
2013-06-03 15:09:00,74.5,52.2,29.75,SE,135,0.0,0.0,46,0.00,,,0.00,LWC V2.10 B1813,2013-06-03 22:09:00,
2013-06-03 15:14:00,74.5,52.2,29.75,ENE,67,2.9,2.9,46,0.00,,,0.00,LWC V2.10 B1813,2013-06-03 22:14:00,
2013-06-03 15:19:00,74.5,52.2,29.75,ESE,112,0.0,0.0,46,0.00,,,0.00,LWC V2.10 B1813,2013-06-03 22:19:00,
2013-06-03 15:24:00,74.5,52.2,29.74,ESE,112,0.0,0.0,46,0.00,,,0.00,LWC V2.10 B1813,2013-06-03 22:24:00,
2013-06-03 15:29:00,74.5,52.2,29.74,ENE,67,0.0,3.8,46,0.00,,,0.00,LWC V2.10 B1813,2013-06-03 22:29:00,
2013-06-03 15:34:00,74.3,52.1,29.75,ENE,67,1.1,1.1,46,0.00,,,0.00,LWC V2.10 B1813,2013-06-03 22:34:00,
2013-06-03 15:39:00,73.9,52.3,29.74,NE,45,2.0,2.9,46,0.00,,,0.00,LWC V2.10 B1813,2013-06-03 22:39:00,
2013-06-03 15:44:00,73.9,52.3,29.74,ENE,67,0.0,0.0,47,0.00,,,0.00,LWC V2.10 B1813,2013-06-03 22:44:00,
2013-06-03 15:49:00,74.1,52.5,29.74,NE,45,0.9,0.9,47,0.00,,,0.00,LWC V2.10 B1813,2013-06-03 22:49:00,
2013-06-03 15:54:00,74.3,52.1,29.74,ENE,67,6.9,6.9,46,0.00,,,0.00,LWC V2.10 B1813,2013-06-03 22:54:00,
2013-06-03 15:59:00,74.5,52.2,29.74,ENE,67,2.9,3.4,46,0.00,,,0.00,LWC V2.10 B1813,2013-06-03 22:59:00,
2013-06-03 16:04:00,74.5,52.2,29.74,East,90,6.9,6.9,46,0.00,,,0.00,LWC V2.10 B1813,2013-06-03 23:04:00,
2013-06-03 16:09:00,74.5,52.2,29.74,NE,45,1.3,1.3,46,0.00,,,0.00,LWC V2.10 B1813,2013-06-03 23:09:00,
2013-06-03 16:14:00,74.5,52.2,29.74,ENE,67,7.2,7.2,46,0.00,,,0.00,LWC V2.10 B1813,2013-06-03 23:14:00,
2013-06-03 16:19:00,74.5,52.2,29.74,ENE,67,0.0,0.0,46,0.00,,,0.00,LWC V2.10 B1813,2013-06-03 23:19:00,
2013-06-03 16:24:00,74.8,52.4,29.74,NNE,22,2.2,2.2,46,0.00,,,0.00,LWC V2.10 B1813,2013-06-03 23:24:00,
2013-06-03 16:29:00,74.8,52.6,29.73,ENE,67,3.4,3.4,46,0.00,,,0.00,LWC V2.10 B1813,2013-06-03 23:29:00,
2013-06-03 16:34:00,75.0,52.8,29.74,ENE,67,8.1,8.1,46,0.00,,,0.00,LWC V2.10 B1813,2013-06-03 23:34:00,
2013-06-03 16:39:00,74.8,52.6,29.74,NE,45,7.8,7.8,46,0.00,,,0.00,LWC V2.10 B1813,2013-06-03 23:39:00,
2013-06-03 16:44:00,74.7,52.4,29.74,ENE,67,2.0,5.6,46,0.00,,,0.00,LWC V2.10 B1813,2013-06-03 23:44:00,
2013-06-03 16:49:00,74.5,52.2,29.74,ENE,67,1.6,1.6,46,0.00,,,0.00,LWC V2.10 B1813,2013-06-03 23:49:00,
2013-06-03 16:54:00,74.3,52.1,29.74,SSE,157,0.0,0.0,46,0.00,,,0.00,LWC V2.10 B1813,2013-06-03 23:54:00,
2013-06-03 16:59:00,74.3,52.1,29.73,ENE,67,6.0,6.0,46,0.00,,,0.00,LWC V2.10 B1813,2013-06-03 23:59:00,
2013-06-03 17:04:00,74.1,51.9,29.73,West,270,0.0,0.0,46,0.00,,,0.00,LWC V2.10 B1813,2013-06-04 00:04:00,
2013-06-03 17:09:00,74.5,52.2,29.73,ENE,67,0.0,0.0,46,0.00,,,0.00,LWC V2.10 B1813,2013-06-04 00:09:00,
2013-06-03 17:14:00,74.3,52.1,29.73,NW,315,0.0,0.0,46,0.00,,,0.00,LWC V2.10 B1813,2013-06-04 00:14:00,
2013-06-03 17:19:00,74.5,52.2,29.73,NNW,337,0.0,0.0,46,0.00,,,0.00,LWC V2.10 B1813,2013-06-04 00:19:00,
2013-06-03 17:24:00,74.3,51.9,29.73,SE,135,0.0,3.1,46,0.00,,,0.00,LWC V2.10 B1813,2013-06-04 00:24:00,
2013-06-03 17:29:00,74.1,51.9,29.73,SSW,202,0.0,0.0,46,0.00,,,0.00,LWC V2.10 B1813,2013-06-04 00:29:00,
2013-06-03 17:34:00,74.1,51.9,29.73,SE,135,0.0,0.0,46,0.00,,,0.00,LWC V2.10 B1813,2013-06-04 00:34:00,
2013-06-03 17:39:00,73.9,51.7,29.73,ENE,67,0.0,1.6,46,0.00,,,0.00,LWC V2.10 B1813,2013-06-04 00:39:00,
2013-06-03 17:44:00,73.9,52.3,29.73,West,270,0.0,0.0,47,0.00,,,0.00,LWC V2.10 B1813,2013-06-04 00:44:00,
2013-06-03 17:49:00,73.9,51.7,29.73,ENE,67,0.0,0.0,46,0.00,,,0.00,LWC V2.10 B1813,2013-06-04 00:49:00,
2013-06-03 17:54:00,73.8,52.2,29.73,NE,45,0.0,0.0,47,0.00,,,0.00,LWC V2.10 B1813,2013-06-04 00:54:00,
2013-06-03 17:59:00,73.6,52.0,29.72,NNE,22,0.0,0.0,47,0.00,,,0.00,LWC V2.10 B1813,2013-06-04 00:59:00,
2013-06-03 18:04:00,73.4,51.8,29.73,ENE,67,2.0,2.0,47,0.00,,,0.00,LWC V2.10 B1813,2013-06-04 01:04:00,
2013-06-03 18:09:00,73.2,51.7,29.72,NE,45,1.3,1.3,47,0.00,,,0.00,LWC V2.10 B1813,2013-06-04 01:09:00,
2013-06-03 18:14:00,73.0,51.5,29.72,NE,45,0.0,6.7,47,0.00,,,0.00,LWC V2.10 B1813,2013-06-04 01:14:00,
2013-06-03 18:19:00,72.5,51.0,29.73,ENE,67,0.0,0.0,47,0.00,,,0.00,LWC V2.10 B1813,2013-06-04 01:19:00,
2013-06-03 18:24:00,72.3,51.4,29.73,ENE,67,0.0,0.0,48,0.00,,,0.00,LWC V2.10 B1813,2013-06-04 01:24:00,
2013-06-03 18:29:00,72.3,51.4,29.73,NE,45,0.0,0.0,48,0.00,,,0.00,LWC V2.10 B1813,2013-06-04 01:29:00,
2013-06-03 18:34:00,72.1,51.3,29.73,NE,45,0.0,0.0,48,0.00,,,0.00,LWC V2.10 B1813,2013-06-04 01:34:00,
2013-06-03 18:39:00,71.8,51.1,29.73,ENE,67,0.0,0.0,48,0.00,,,0.00,LWC V2.10 B1813,2013-06-04 01:39:00,
2013-06-03 18:44:00,71.4,50.6,29.73,ENE,67,0.0,0.0,48,0.00,,,0.00,LWC V2.10 B1813,2013-06-04 01:44:00,
2013-06-03 18:49:00,71.2,51.1,29.73,ENE,67,3.8,3.8,49,0.00,,,0.00,LWC V2.10 B1813,2013-06-04 01:49:00,
2013-06-03 18:54:00,70.9,50.6,29.73,NW,315,3.6,3.6,49,0.00,,,0.00,LWC V2.10 B1813,2013-06-04 01:54:00,
2013-06-03 18:59:00,70.5,50.4,29.73,NW,315,0.0,0.0,49,0.00,,,0.00,LWC V2.10 B1813,2013-06-04 01:59:00,
2013-06-03 19:04:00,70.3,50.3,29.73,WNW,292,0.0,0.0,49,0.00,,,0.00,LWC V2.10 B1813,2013-06-04 02:04:00,
2013-06-03 19:09:00,70.3,50.8,29.74,ENE,67,1.1,1.1,50,0.00,,,0.00,LWC V2.10 B1813,2013-06-04 02:09:00,
2013-06-03 19:14:00,70.3,50.8,29.74,ESE,112,0.0,0.0,50,0.00,,,0.00,LWC V2.10 B1813,2013-06-04 02:14:00,
2013-06-03 19:19:00,70.0,50.5,29.74,ESE,112,0.0,0.0,50,0.00,,,0.00,LWC V2.10 B1813,2013-06-04 02:19:00,
2013-06-03 19:24:00,70.0,50.5,29.75,ESE,112,0.0,0.0,50,0.00,,,0.00,LWC V2.10 B1813,2013-06-04 02:24:00,
2013-06-03 19:29:00,69.8,50.4,29.74,SSW,202,0.0,0.0,50,0.00,,,0.00,LWC V2.10 B1813,2013-06-04 02:29:00,
2013-06-03 19:34:00,69.6,50.2,29.75,SSW,202,0.0,0.0,50,0.00,,,0.00,LWC V2.10 B1813,2013-06-04 02:34:00,
2013-06-03 19:39:00,69.4,50.0,29.75,WNW,292,0.0,0.0,50,0.00,,,0.00,LWC V2.10 B1813,2013-06-04 02:39:00,
2013-06-03 19:44:00,69.1,49.7,29.75,WNW,292,0.0,0.0,50,0.00,,,0.00,LWC V2.10 B1813,2013-06-04 02:44:00,
2013-06-03 19:49:00,68.7,49.9,29.75,WNW,292,0.0,0.0,51,0.00,,,0.00,LWC V2.10 B1813,2013-06-04 02:49:00,
2013-06-03 19:54:00,68.4,49.5,29.76,NW,315,0.0,0.0,51,0.00,,,0.00,LWC V2.10 B1813,2013-06-04 02:54:00,
2013-06-03 19:59:00,68.0,49.2,29.76,West,270,0.0,0.0,51,0.00,,,0.00,LWC V2.10 B1813,2013-06-04 02:59:00,
2013-06-03 20:04:00,67.6,48.9,29.76,WSW,247,0.0,0.0,51,0.00,,,0.00,LWC V2.10 B1813,2013-06-04 03:04:00,
2013-06-03 20:09:00,67.3,49.1,29.76,NW,315,0.0,0.0,52,0.00,,,0.00,LWC V2.10 B1813,2013-06-04 03:09:00,
2013-06-03 20:14:00,66.9,48.7,29.76,West,270,0.0,0.0,52,0.00,,,0.00,LWC V2.10 B1813,2013-06-04 03:14:00,
2013-06-03 20:19:00,66.7,48.6,29.76,West,270,0.0,0.0,52,0.00,,,0.00,LWC V2.10 B1813,2013-06-04 03:19:00,
2013-06-03 20:24:00,66.6,48.9,29.76,West,270,0.0,0.0,53,0.00,,,0.00,LWC V2.10 B1813,2013-06-04 03:24:00,
2013-06-03 20:29:00,66.4,48.7,29.76,West,270,0.0,0.0,53,0.00,,,0.00,LWC V2.10 B1813,2013-06-04 03:29:00,
2013-06-03 20:34:00,66.0,48.4,29.76,West,270,0.0,0.0,53,0.00,,,0.00,LWC V2.10 B1813,2013-06-04 03:34:00,
2013-06-03 20:39:00,65.7,48.5,29.76,WNW,292,0.0,0.0,54,0.00,,,0.00,LWC V2.10 B1813,2013-06-04 03:39:00,
2013-06-03 20:44:00,65.3,48.2,29.76,West,270,0.0,0.0,54,0.00,,,0.00,LWC V2.10 B1813,2013-06-04 03:44:00,
2013-06-03 20:49:00,65.1,48.0,29.76,WNW,292,0.0,0.0,54,0.00,,,0.00,LWC V2.10 B1813,2013-06-04 03:49:00,
2013-06-03 20:54:00,64.8,48.1,29.76,WNW,292,0.0,0.0,55,0.00,,,0.00,LWC V2.10 B1813,2013-06-04 03:54:00,
2013-06-03 20:59:00,64.4,47.8,29.76,WNW,292,0.0,0.0,55,0.00,,,0.00,LWC V2.10 B1813,2013-06-04 03:59:00,
2013-06-03 21:01:00,64.2,47.6,29.76,NNW,337,0.0,0.0,55,0.00,,,0.00,LWC V2.10 B1813,2013-06-04 04:01:00,
2013-06-03 21:06:00,63.7,47.6,29.77,NW,315,0.0,0.0,56,0.00,,,0.00,LWC V2.10 B1813,2013-06-04 04:06:00,
2013-06-03 21:11:00,63.1,47.1,29.77,NNW,337,0.0,0.0,56,0.00,,,0.00,LWC V2.10 B1813,2013-06-04 04:11:00,
2013-06-03 21:16:00,63.0,47.4,29.77,NNW,337,0.0,0.0,57,0.00,,,0.00,LWC V2.10 B1813,2013-06-04 04:16:00,
2013-06-03 21:21:00,62.6,47.1,29.77,NNW,337,0.0,0.0,57,0.00,,,0.00,LWC V2.10 B1813,2013-06-04 04:21:00,
2013-06-03 21:26:00,62.8,48.6,29.77,NNW,337,0.0,0.0,59,0.00,,,0.00,LWC V2.10 B1813,2013-06-04 04:26:00,
2013-06-03 21:31:00,63.1,48.1,29.77,NNW,337,0.0,0.0,58,0.00,,,0.00,LWC V2.10 B1813,2013-06-04 04:31:00,
2013-06-03 21:36:00,62.6,47.6,29.78,NW,315,0.0,0.0,58,0.00,,,0.00,LWC V2.10 B1813,2013-06-04 04:36:00,
2013-06-03 21:41:00,63.3,49.3,29.78,WNW,292,0.0,0.0,60,0.00,,,0.00,LWC V2.10 B1813,2013-06-04 04:41:00,
2013-06-03 21:46:00,63.7,48.6,29.78,NNW,337,0.0,0.0,58,0.00,,,0.00,LWC V2.10 B1813,2013-06-04 04:46:00,
2013-06-03 21:51:00,63.1,47.6,29.78,NW,315,0.0,0.0,57,0.00,,,0.00,LWC V2.10 B1813,2013-06-04 04:51:00,
2013-06-03 21:56:00,62.4,47.4,29.78,WNW,292,0.0,0.0,58,0.00,,,0.00,LWC V2.10 B1813,2013-06-04 04:56:00,
2013-06-03 22:10:00,62.4,47.4,29.78,West,270,0.0,0.0,58,0.00,,,0.00,LWC V2.10 B1813,2013-06-04 05:10:00,
2013-06-03 22:11:00,62.4,46.9,29.77,NNW,337,0.0,0.0,59,0.00,,,0.00,LWC V2.10 B1813,2013-06-04 05:11:00,
2013-06-03 22:16:00,61.0,47.1,29.77,NNW,337,0.0,0.0,60,0.00,,,0.00,LWC V2.10 B1813,2013-06-04 05:16:00,
2013-06-03 22:21:00,60.6,46.8,29.77,NW,315,0.0,0.0,60,0.00,,,0.00,LWC V2.10 B1813,2013-06-04 05:21:00,
2013-06-03 22:26:00,60.6,47.2,29.77,NNW,337,0.0,0.0,61,0.00,,,0.00,LWC V2.10 B1813,2013-06-04 05:26:00,
2013-06-03 22:31:00,60.4,47.0,29.77,NW,315,0.0,0.0,61,0.00,,,0.00,LWC V2.10 B1813,2013-06-04 05:31:00,
2013-06-03 22:36:00,60.1,46.6,29.78,NNW,337,0.0,0.0,61,0.00,,,0.00,LWC V2.10 B1813,2013-06-04 05:36:00,
2013-06-03 22:41:00,60.1,46.6,29.78,NW,315,0.0,0.0,61,0.00,,,0.00,LWC V2.10 B1813,2013-06-04 05:41:00,
2013-06-03 22:46:00,59.9,46.9,29.78,NNW,337,0.0,0.0,62,0.00,,,0.00,LWC V2.10 B1813,2013-06-04 05:46:00,
2013-06-03 22:51:00,59.7,46.7,29.78,NW,315,1.1,1.1,62,0.00,,,0.00,LWC V2.10 B1813,2013-06-04 05:51:00,
2013-06-03 22:56:00,59.5,46.5,29.78,NW,315,0.0,0.0,62,0.00,,,0.00,LWC V2.10 B1813,2013-06-04 05:56:00,
2013-06-03 23:10:00,59.5,46.5,29.78,NW,315,0.0,0.0,-999,0.00,,,0.00,LWC V2.10 B1813,2013-06-04 06:10:00,
2013-06-03 23:15:00,59.5,46.9,29.78,NW,315,0.0,0.0,63,0.00,,,0.00,LWC V2.10 B1813,2013-06-04 06:15:00,
2013-06-03 23:20:00,59.2,46.6,29.78,NW,315,0.0,0.0,63,0.00,,,0.00,LWC V2.10 B1813,2013-06-04 06:20:00,
2013-06-03 23:25:00,59.2,46.6,29.78,WNW,292,0.0,0.0,63,0.00,,,0.00,LWC V2.10 B1813,2013-06-04 06:25:00,
2013-06-03 23:30:00,59.0,46.4,29.78,WNW,292,0.0,0.0,63,0.00,,,0.00,LWC V2.10 B1813,2013-06-04 06:30:00,
2013-06-03 23:35:00,58.8,46.6,29.78,NW,315,0.0,0.0,64,0.00,,,0.00,LWC V2.10 B1813,2013-06-04 06:35:00,
2013-06-03 23:40:00,58.8,46.6,29.78,NW,315,2.5,2.5,64,0.00,,,0.00,LWC V2.10 B1813,2013-06-04 06:40:00,
2013-06-03 23:45:00,58.8,46.6,29.78,WNW,292,0.0,0.0,64,0.00,,,0.00,LWC V2.10 B1813,2013-06-04 06:45:00,
2013-06-03 23:50:00,58.6,46.5,29.78,NW,315,0.0,0.0,64,0.00,,,0.00,LWC V2.10 B1813,2013-06-04 06:50:00,
2013-06-03 23:55:00,58.3,46.1,29.78,West,270,0.0,0.0,64,0.00,,,0.00,LWC V2.10 B1813,2013-06-04 06:55:00,